createdAt,value
2019-04-23T00:03:51.543Z,4.53
2019-04-23T00:06:28.782Z,4.25
2019-04-23T00:09:07.287Z,3.90
2019-04-23T00:14:05.754Z,3.92
2019-04-23T00:16:30.248Z,4.25
2019-04-23T00:18:56.075Z,3.95
2019-04-23T00:21:40.534Z,3.62
2019-04-23T00:24:17.509Z,4.33
2019-04-23T00:26:42.594Z,3.95
2019-04-23T00:29:18.700Z,4.00
2019-04-23T00:31:43.205Z,3.87
2019-04-23T00:34:16.069Z,4.05
2019-04-23T00:36:44.166Z,3.72
2019-04-23T00:39:15.399Z,4.10
2019-04-23T00:41:54.584Z,4.05
2019-04-23T00:44:22.947Z,3.40
2019-04-23T00:46:48.990Z,3.27
2019-04-23T00:51:50.072Z,3.77
2019-04-23T00:54:27.409Z,3.60
2019-04-23T00:59:33.209Z,3.42
2019-04-23T01:02:02.721Z,3.52
2019-04-23T01:04:32.890Z,3.72
2019-04-23T01:06:58.305Z,3.90
2019-04-23T01:09:38.673Z,3.60
2019-04-23T01:12:10.790Z,3.70
2019-04-23T01:14:32.518Z,3.30
2019-04-23T01:17:08.507Z,3.55
2019-04-23T01:19:43.847Z,3.25
2019-04-23T01:22:00.142Z,3.10
2019-04-23T01:24:48.824Z,3.35
2019-04-23T01:30:17.918Z,3.35
2019-04-23T01:32:51.915Z,3.27
2019-04-23T01:35:20.387Z,2.85
2019-04-23T01:37:47.743Z,3.17
2019-04-23T01:40:27.303Z,3.90
2019-04-23T01:43:10.806Z,3.37
2019-04-23T01:45:32.701Z,3.12
2019-04-23T01:50:43.746Z,3.17
2019-04-23T01:53:02.860Z,3.12
2019-04-23T01:58:21.443Z,3.33
2019-04-23T02:03:12.947Z,2.80
2019-04-23T02:05:41.539Z,3.10
2019-04-23T02:08:08.071Z,3.30
2019-04-23T02:10:51.341Z,3.45
2019-04-23T02:15:47.716Z,2.80
2019-04-23T02:18:17.942Z,3.20
2019-04-23T02:21:04.644Z,3.22
2019-04-23T02:23:44.310Z,3.02
2019-04-23T02:26:18.310Z,2.70
2019-04-23T02:36:29.228Z,2.62
2019-04-23T02:41:41.383Z,2.72
2019-04-23T02:44:09.124Z,2.65
2019-04-23T02:46:25.014Z,2.55
2019-04-23T02:49:07.179Z,2.70
2019-04-23T02:56:49.321Z,2.10
2019-04-23T02:59:10.283Z,2.87
2019-04-23T03:01:36.043Z,2.72
2019-04-23T03:09:13.388Z,2.77
2019-04-23T03:16:54.762Z,2.80
2019-04-23T03:19:32.289Z,2.67
2019-04-23T03:24:45.769Z,2.42
2019-04-23T03:45:07.538Z,2.90
2019-04-23T03:50:02.184Z,2.30
2019-04-23T03:54:54.362Z,2.70
2019-04-23T03:57:24.762Z,2.77
2019-04-23T04:00:15.055Z,2.72
2019-04-23T04:05:20.543Z,2.60
2019-04-23T04:07:47.000Z,2.45
2019-04-23T04:09:51.813Z,2.60
2019-04-23T04:12:35.672Z,2.27
2019-04-23T04:17:33.146Z,2.30
2019-04-23T04:20:07.481Z,2.33
2019-04-23T04:25:06.689Z,2.25
2019-04-23T04:27:45.677Z,2.12
2019-04-23T04:35:20.594Z,2.87
2019-04-23T04:42:42.389Z,3.10
2019-04-23T04:45:22.827Z,2.70
2019-04-23T05:00:38.701Z,2.20
2019-04-23T05:05:55.363Z,2.92
2019-04-23T05:07:54.743Z,2.20
2019-04-23T05:13:03.422Z,2.08
2019-04-23T05:15:23.487Z,2.70
2019-04-23T05:18:23.987Z,2.20
2019-04-23T05:23:16.448Z,2.50
2019-04-23T05:25:37.817Z,2.70
2019-04-23T05:28:12.581Z,2.33
2019-04-23T05:30:44.552Z,2.80
2019-04-23T05:33:18.624Z,2.70
2019-04-23T05:36:08.924Z,2.40
2019-04-23T05:43:19.096Z,2.62
2019-04-23T05:45:53.116Z,2.42
2019-04-23T05:48:28.671Z,2.85
2019-04-23T05:55:55.444Z,2.47
2019-04-23T05:58:28.697Z,2.30
2019-04-23T06:01:19.988Z,3.20
2019-04-23T06:03:44.363Z,2.80
2019-04-23T06:06:14.373Z,2.33
2019-04-23T06:08:49.682Z,2.67
2019-04-23T06:11:25.990Z,2.80
2019-04-23T06:13:55.146Z,2.20
2019-04-23T06:16:22.149Z,2.40
2019-04-23T06:18:57.638Z,2.55
2019-04-23T06:21:23.982Z,2.25
2019-04-23T06:23:55.597Z,3.02
2019-04-23T06:26:32.924Z,2.30
2019-04-23T06:28:58.799Z,2.62
2019-04-23T06:33:59.222Z,2.83
2019-04-23T06:36:26.034Z,2.40
2019-04-23T06:39:06.908Z,2.60
2019-04-23T06:41:29.129Z,2.85
2019-04-23T06:44:11.561Z,3.12
2019-04-23T06:46:39.876Z,2.50
2019-04-23T06:49:02.366Z,3.05
2019-04-23T06:54:03.361Z,2.80
2019-04-23T06:56:43.512Z,2.30
2019-04-23T06:59:12.996Z,2.70
2019-04-23T07:01:51.060Z,2.80
2019-04-23T07:04:15.252Z,2.40
2019-04-23T07:06:47.143Z,2.90
2019-04-23T07:11:39.160Z,3.10
2019-04-23T07:14:02.377Z,3.30
2019-04-23T07:16:48.373Z,2.95
2019-04-23T07:21:50.833Z,3.08
2019-04-23T07:24:16.889Z,3.50
2019-04-23T07:26:41.859Z,3.27
2019-04-23T07:29:25.810Z,3.08
2019-04-23T07:31:54.595Z,3.47
2019-04-23T07:34:23.187Z,3.10
2019-04-23T07:36:54.004Z,3.45
2019-04-23T07:40:06.200Z,3.47
2019-04-23T07:42:24.825Z,3.22
2019-04-23T07:47:41.827Z,3.55
2019-04-23T07:50:23.337Z,3.17
2019-04-23T07:52:54.183Z,3.85
2019-04-23T07:55:29.697Z,3.62
2019-04-23T07:57:52.106Z,3.58
2019-04-23T08:00:29.633Z,3.37
2019-04-23T08:03:01.155Z,3.08
2019-04-23T08:07:57.148Z,4.03
2019-04-23T08:10:29.728Z,3.50
2019-04-23T08:12:59.579Z,3.45
2019-04-23T08:15:28.088Z,3.62
2019-04-23T08:17:58.557Z,3.47
2019-04-23T08:20:35.083Z,3.83
2019-04-23T08:23:12.628Z,3.62
2019-04-23T08:25:45.374Z,3.65
2019-04-23T08:28:23.025Z,3.92
2019-04-23T08:30:49.587Z,4.10
2019-04-23T08:33:17.452Z,3.40
2019-04-23T08:35:54.271Z,3.90
2019-04-23T08:38:26.598Z,3.47
2019-04-23T08:40:57.184Z,3.45
2019-04-23T08:46:07.900Z,4.17
2019-04-23T08:48:34.609Z,3.60
2019-04-23T08:51:24.107Z,4.55
2019-04-23T08:56:08.775Z,3.50
2019-04-23T08:58:36.861Z,3.83
2019-04-23T09:01:09.564Z,3.90
2019-04-23T09:03:51.281Z,4.55
2019-04-23T09:06:13.922Z,3.62
2019-04-23T09:08:43.754Z,4.67
2019-04-23T09:11:30.761Z,4.25
2019-04-23T09:13:53.493Z,4.25
2019-04-23T09:16:18.009Z,5.00
2019-04-23T09:18:45.998Z,4.40
2019-04-23T09:21:25.729Z,4.78
2019-04-23T09:23:54.427Z,4.03
2019-04-23T09:26:11.021Z,4.50
2019-04-23T09:28:53.293Z,4.58
2019-04-23T09:34:09.686Z,3.98
2019-04-23T09:37:00.335Z,4.60
2019-04-23T09:39:28.873Z,4.90
2019-04-23T09:42:08.755Z,4.00
2019-04-23T09:47:30.045Z,4.03
2019-04-23T09:50:01.209Z,5.15
2019-04-23T09:52:33.021Z,4.87
2019-04-23T09:55:11.714Z,3.72
2019-04-23T09:57:33.878Z,4.40
2019-04-23T10:00:10.658Z,4.73
2019-04-23T10:02:28.240Z,4.25
2019-04-23T10:04:57.407Z,4.47
2019-04-23T10:07:25.103Z,4.03
2019-04-23T10:09:42.510Z,4.57
2019-04-23T10:12:13.181Z,4.80
2019-04-23T10:14:53.903Z,3.85
2019-04-23T10:17:15.905Z,4.50
2019-04-23T10:19:46.664Z,4.45
2019-04-23T10:22:17.307Z,4.70
2019-04-23T10:24:46.882Z,4.70
2019-04-23T10:27:16.993Z,4.60
2019-04-23T10:29:47.875Z,4.03
2019-04-23T10:32:17.742Z,6.42
2019-04-23T10:35:00.788Z,4.17
2019-04-23T10:37:31.438Z,4.45
2019-04-23T10:39:54.915Z,4.97
2019-04-23T10:42:21.925Z,4.95
2019-04-23T10:45:16.194Z,4.62
2019-04-23T10:48:21.708Z,4.80
2019-04-23T10:53:29.896Z,4.67
2019-04-23T10:56:21.381Z,4.75
2019-04-23T10:58:31.465Z,5.33
2019-04-23T11:01:09.821Z,6.20
2019-04-23T11:06:16.873Z,5.22
2019-04-23T11:08:37.024Z,5.03
2019-04-23T11:13:45.318Z,5.00
2019-04-23T11:16:39.930Z,5.62
2019-04-23T11:18:52.079Z,4.03
2019-04-23T11:21:24.074Z,5.75
2019-04-23T11:26:21.834Z,6.00
2019-04-23T11:28:44.224Z,5.67
2019-04-23T11:31:31.165Z,4.97
2019-04-23T11:34:01.685Z,5.65
2019-04-23T11:43:58.899Z,5.40
2019-04-23T11:54:05.855Z,4.72
2019-04-23T11:57:05.988Z,5.17
2019-04-23T11:59:12.264Z,5.20
2019-04-23T12:04:26.515Z,5.05
2019-04-23T12:07:00.708Z,5.62
2019-04-23T12:09:47.841Z,6.62
2019-04-23T12:12:17.310Z,6.12
2019-04-23T12:14:48.036Z,5.85
2019-04-23T12:22:39.005Z,6.50
2019-04-23T12:30:20.185Z,6.03
2019-04-23T12:35:16.144Z,7.05
2019-04-23T12:42:55.192Z,6.10
2019-04-23T12:48:09.781Z,5.87
2019-04-23T12:50:41.845Z,6.17
2019-04-23T12:52:51.038Z,6.28
2019-04-23T12:58:11.221Z,5.72
2019-04-23T13:00:25.733Z,5.65
2019-04-23T13:15:34.618Z,7.30
2019-04-23T13:18:06.778Z,7.20
2019-04-23T13:20:36.871Z,7.20
2019-04-23T13:23:16.472Z,6.03
2019-04-23T13:25:47.351Z,6.42
2019-04-23T13:28:16.471Z,7.05
2019-04-23T13:33:31.890Z,5.77
2019-04-23T13:36:14.505Z,6.35
2019-04-23T13:41:01.127Z,6.00
2019-04-23T13:43:40.770Z,5.50
2019-04-23T13:48:23.324Z,6.10
2019-04-23T13:52:12.783Z,5.22
2019-04-23T13:56:06.224Z,5.75
2019-04-23T13:58:38.779Z,6.47
2019-04-23T14:01:23.513Z,5.15
2019-04-23T14:03:40.815Z,5.08
2019-04-23T14:08:48.617Z,5.62
2019-04-23T14:13:49.859Z,6.08
2019-04-23T14:21:20.434Z,6.00
2019-04-23T14:24:03.371Z,6.37
2019-04-23T14:28:44.652Z,4.97
2019-04-23T14:31:16.665Z,6.33
2019-04-23T14:34:00.178Z,5.97
2019-04-23T14:38:58.003Z,5.50
2019-04-23T14:46:41.288Z,6.33
2019-04-23T14:49:07.209Z,5.90
2019-04-23T14:54:13.392Z,5.80
2019-04-23T14:56:45.052Z,5.67
2019-04-23T14:59:10.446Z,5.65
2019-04-23T15:01:47.693Z,5.83
2019-04-23T15:04:10.947Z,6.30
2019-04-23T15:06:50.779Z,6.08
2019-04-23T15:09:22.957Z,5.33
2019-04-23T15:11:59.705Z,5.58
2019-04-23T15:14:17.767Z,4.97
2019-04-23T15:16:54.791Z,4.97
2019-04-23T15:19:37.923Z,5.55
2019-04-23T15:29:12.991Z,6.08
2019-04-23T15:32:04.410Z,5.15
2019-04-23T15:34:51.929Z,5.80
2019-04-23T15:37:20.340Z,6.10
2019-04-23T15:42:12.602Z,5.75
2019-04-23T15:44:46.455Z,5.95
2019-04-23T15:49:45.034Z,5.25
2019-04-23T15:52:14.324Z,5.30
2019-04-23T15:54:47.193Z,5.70
2019-04-23T15:57:28.413Z,5.65
2019-04-23T16:00:05.229Z,5.72
2019-04-23T16:02:08.837Z,6.28
2019-04-23T16:04:39.839Z,6.15
2019-04-23T16:07:10.545Z,6.50
2019-04-23T16:12:42.252Z,6.12
2019-04-23T16:17:41.906Z,6.45
2019-04-23T16:20:33.277Z,6.00
2019-04-23T16:22:52.829Z,6.30
2019-04-23T16:25:22.250Z,5.78
2019-04-23T16:28:03.258Z,5.95
2019-04-23T16:36:00.886Z,6.55
2019-04-23T16:38:34.209Z,6.37
2019-04-23T16:43:40.912Z,6.00
2019-04-23T16:51:11.099Z,5.78
2019-04-23T16:53:27.560Z,5.90
2019-04-23T16:56:04.992Z,6.92
2019-04-23T16:58:33.648Z,6.45
2019-04-23T17:01:08.671Z,6.15
2019-04-23T17:03:31.265Z,6.40
2019-04-23T17:06:15.886Z,6.08
2019-04-23T17:13:37.817Z,5.58
2019-04-23T17:16:15.307Z,6.04
2019-04-23T17:18:47.112Z,6.10
2019-04-23T17:21:16.648Z,5.53
2019-04-23T17:24:08.063Z,6.30
2019-04-23T17:26:24.530Z,6.33
2019-04-23T17:28:44.202Z,5.42
2019-04-23T17:34:11.162Z,6.20
2019-04-23T17:36:28.502Z,5.78
2019-04-23T17:39:04.005Z,6.00
2019-04-23T17:41:41.784Z,6.10
2019-04-23T17:44:21.320Z,5.83
2019-04-23T17:49:12.406Z,6.37
2019-04-23T17:51:42.235Z,5.55
2019-04-23T17:56:55.933Z,6.05
2019-04-23T17:59:27.785Z,6.03
2019-04-23T18:01:57.081Z,6.08
2019-04-23T18:04:23.431Z,5.93
2019-04-23T18:06:53.883Z,6.45
2019-04-23T18:11:53.967Z,6.00
2019-04-23T18:14:30.956Z,6.22
2019-04-23T18:19:30.562Z,6.08
2019-04-23T18:22:19.149Z,6.78
2019-04-23T18:27:48.256Z,6.20
2019-04-23T18:30:47.465Z,6.17
2019-04-23T18:35:28.272Z,5.92
2019-04-23T18:40:54.567Z,6.05
2019-04-23T18:43:21.100Z,6.12
2019-04-23T18:45:46.752Z,6.03
2019-04-23T18:48:38.890Z,5.80
2019-04-23T18:51:03.486Z,6.53
2019-04-23T18:56:06.928Z,6.72
2019-04-23T18:58:54.697Z,6.58
2019-04-23T19:01:27.890Z,6.35
2019-04-23T19:04:00.314Z,7.10
2019-04-23T19:09:03.122Z,6.80
2019-04-23T19:14:38.935Z,6.15
2019-04-23T19:17:08.979Z,6.33
2019-04-23T19:19:28.853Z,6.90
2019-04-23T19:24:27.841Z,6.95
2019-04-23T19:27:13.688Z,6.80
2019-04-23T19:29:40.232Z,6.75
2019-04-23T19:34:36.296Z,6.17
2019-04-23T19:37:11.106Z,6.95
2019-04-23T19:47:09.571Z,8.03
2019-04-23T19:49:58.923Z,6.72
2019-04-23T19:52:35.040Z,7.97
2019-04-23T19:57:13.546Z,7.47
2019-04-23T20:00:02.714Z,8.00
2019-04-23T20:02:27.109Z,8.23
2019-04-23T20:07:20.034Z,7.70
2019-04-23T20:09:51.733Z,7.87
2019-04-23T20:12:25.408Z,7.25
2019-04-23T20:14:52.268Z,8.00
2019-04-23T20:25:18.889Z,7.78
2019-04-23T20:27:26.474Z,7.60
2019-04-23T20:33:33.612Z,8.98
2019-04-23T20:35:18.133Z,8.33
2019-04-23T20:38:17.277Z,7.87
2019-04-23T20:40:30.536Z,8.03
2019-04-23T20:42:57.906Z,7.28
2019-04-23T20:45:27.635Z,8.10
2019-04-23T20:48:00.726Z,9.05
2019-04-23T20:50:31.512Z,7.85
2019-04-23T20:52:59.927Z,7.92
2019-04-23T20:55:49.742Z,8.20
2019-04-23T20:58:21.212Z,8.93
2019-04-23T21:01:18.323Z,8.58
2019-04-23T21:06:10.208Z,7.95
2019-04-23T21:11:08.822Z,8.95
2019-04-23T21:16:14.983Z,8.35
2019-04-23T21:18:44.246Z,9.33
2019-04-23T21:21:20.260Z,8.78
2019-04-23T21:23:51.029Z,8.95
2019-04-23T21:26:07.883Z,8.83
2019-04-23T21:28:54.117Z,8.70
2019-04-23T21:31:22.727Z,8.68
2019-04-23T21:34:03.231Z,9.10
2019-04-23T21:36:34.443Z,8.90
2019-04-23T21:46:52.639Z,9.43
2019-04-23T21:49:27.190Z,8.73
2019-04-23T21:54:13.230Z,9.08
2019-04-23T21:56:53.442Z,9.40
2019-04-23T21:59:22.787Z,9.50
2019-04-23T22:01:54.163Z,10.30
2019-04-23T22:06:54.148Z,9.53
2019-04-23T22:12:05.212Z,9.38
2019-04-23T22:14:34.170Z,10.05
2019-04-23T22:20:27.768Z,9.95
2019-04-23T22:25:13.451Z,9.93
2019-04-23T22:27:54.539Z,10.30
2019-04-23T22:30:22.738Z,9.88
2019-04-23T22:33:07.170Z,10.58
2019-04-23T22:35:22.021Z,10.78
2019-04-23T22:38:09.572Z,11.15
2019-04-23T22:40:25.379Z,10.45
2019-04-23T22:45:28.243Z,10.63
2019-04-23T22:50:27.985Z,9.93
2019-04-23T22:53:04.315Z,10.10
2019-04-23T22:55:40.596Z,10.25
2019-04-23T23:00:41.650Z,9.63
2019-04-23T23:08:24.917Z,9.18
2019-04-23T23:13:28.419Z,9.13
2019-04-23T23:16:01.345Z,9.33
2019-04-23T23:18:31.005Z,8.53
2019-04-23T23:27:05.615Z,8.78
2019-04-23T23:29:49.400Z,9.50
2019-04-23T23:32:16.693Z,9.98
2019-04-23T23:35:02.631Z,9.28
2019-04-23T23:37:12.083Z,9.28
2019-04-23T23:39:49.358Z,9.03
2019-04-23T23:42:16.223Z,9.60
2019-04-23T23:44:59.344Z,9.55
2019-04-23T23:47:18.195Z,9.03
2019-04-23T23:50:00.980Z,9.10
2019-04-23T23:52:34.562Z,9.33
2019-04-23T23:55:03.787Z,9.18
